createdAt,value
2023-02-14T02:00:50.130Z,0.36
2023-02-14T02:02:33.973Z,0.34
2023-02-14T02:03:41.746Z,0.32
2023-02-14T02:04:47.098Z,0.32
2023-02-14T02:05:53.965Z,0.32
2023-02-14T02:07:00.666Z,0.32
2023-02-14T02:08:03.169Z,0.32
2023-02-14T02:09:28.910Z,0.31
2023-02-14T02:10:31.297Z,0.31
2023-02-14T02:11:34.496Z,0.30
2023-02-14T02:12:38.259Z,0.29
2023-02-14T02:13:40.667Z,0.29
2023-02-14T02:14:43.672Z,0.28
2023-02-14T02:15:54.425Z,0.27
2023-02-14T02:17:06.448Z,0.26
2023-02-14T02:18:19.049Z,0.26
2023-02-14T02:19:33.490Z,0.25
2023-02-14T02:20:41.896Z,0.23
2023-02-14T02:22:21.809Z,0.20
2023-02-14T02:23:42.210Z,0.16
2023-02-14T02:24:50.241Z,0.13
2023-02-14T02:26:30.064Z,0.11
2023-02-14T02:27:53.632Z,0.08
2023-02-14T02:29:19.951Z,0.05
2023-02-14T02:30:43.870Z,0.02
2023-02-14T02:32:08.262Z,-0.02
2023-02-14T02:33:13.281Z,-0.05
2023-02-14T02:34:53.177Z,-0.07
2023-02-14T02:36:09.085Z,-0.10
2023-02-14T02:37:38.593Z,-0.13
2023-02-14T02:39:08.314Z,-0.16
2023-02-14T02:40:29.073Z,-0.18
2023-02-14T02:41:46.813Z,-0.20
2023-02-14T02:43:02.789Z,-0.21
2023-02-14T02:44:16.919Z,-0.23
2023-02-14T02:45:29.448Z,-0.24
2023-02-14T02:46:49.101Z,-0.25
2023-02-14T02:48:11.163Z,-0.27
2023-02-14T02:50:08.795Z,-0.28
2023-02-14T02:51:36.938Z,-0.29
2023-02-14T02:53:07.328Z,-0.30
2023-02-14T02:54:26.302Z,-0.31
2023-02-14T02:55:53.194Z,-0.31
2023-02-14T02:57:00.125Z,-0.33
2023-02-14T02:58:03.366Z,-0.33
2023-02-14T02:59:20.964Z,-0.34
2023-02-14T03:00:25.170Z,-0.36
2023-02-14T03:01:31.672Z,-0.38
2023-02-14T03:03:00.189Z,-0.40
2023-02-14T03:04:25.643Z,-0.43
2023-02-14T03:05:29.433Z,-0.47
2023-02-14T03:06:32.981Z,-0.50
2023-02-14T03:07:37.536Z,-0.53
2023-02-14T03:08:39.854Z,-0.55
2023-02-14T03:09:42.258Z,-0.58
2023-02-14T03:10:45.099Z,-0.60
2023-02-14T03:12:25.850Z,-0.63
2023-02-14T03:13:37.641Z,-0.67
2023-02-14T03:14:55.646Z,-0.68
2023-02-14T03:16:27.317Z,-0.70
2023-02-14T03:17:36.920Z,-0.73
2023-02-14T03:19:24.048Z,-0.74
2023-02-14T03:20:41.817Z,-0.78
2023-02-14T03:22:05.788Z,-0.81
2023-02-14T03:23:30.030Z,-0.85
2023-02-14T03:25:03.794Z,-0.87
2023-02-14T03:26:19.046Z,-0.88
2023-02-14T03:27:33.002Z,-0.90
2023-02-14T03:29:05.324Z,-0.91
2023-02-14T03:30:33.590Z,-0.93
2023-02-14T03:31:56.102Z,-0.94
2023-02-14T03:33:14.178Z,-0.94
2023-02-14T03:34:35.546Z,-0.96
2023-02-14T03:36:02.055Z,-0.97
2023-02-14T03:37:20.236Z,-0.99
2023-02-14T03:38:31.697Z,-1.00
2023-02-14T03:39:45.873Z,-1.01
2023-02-14T03:40:54.768Z,-1.02
2023-02-14T03:42:06.353Z,-1.03
2023-02-14T03:43:13.334Z,-1.04
2023-02-14T03:44:21.520Z,-1.04
2023-02-14T03:45:32.929Z,-1.05
2023-02-14T03:46:44.666Z,-1.06
2023-02-14T03:47:48.861Z,-1.07
2023-02-14T03:48:54.172Z,-1.08
2023-02-14T03:50:04.437Z,-1.09
2023-02-14T03:51:09.685Z,-1.10
2023-02-14T03:52:14.185Z,-1.10
2023-02-14T03:53:21.846Z,-1.10
2023-02-14T03:54:25.926Z,-1.11
2023-02-14T03:55:54.536Z,-1.11
2023-02-14T03:57:21.983Z,-1.13
2023-02-14T03:58:32.860Z,-1.14
2023-02-14T03:59:35.608Z,-1.15
2023-02-14T04:00:41.273Z,-1.15
2023-02-14T04:01:49.838Z,-1.16
2023-02-14T04:02:56.384Z,-1.17
2023-02-14T04:04:00.772Z,-1.17
2023-02-14T04:05:15.567Z,-1.18
2023-02-14T04:06:20.152Z,-1.18
2023-02-14T04:07:23.897Z,-1.18
2023-02-14T04:08:28.842Z,-1.17
2023-02-14T04:09:31.207Z,-1.17
2023-02-14T04:10:34.077Z,-1.17
2023-02-14T04:11:38.614Z,-1.18
2023-02-14T04:12:40.998Z,-1.17
2023-02-14T04:13:43.360Z,-1.17
2023-02-14T04:14:45.753Z,-1.16
2023-02-14T04:15:48.172Z,-1.15
2023-02-14T04:17:09.580Z,-1.15
2023-02-14T04:18:30.353Z,-1.14
2023-02-14T04:19:32.728Z,-1.14
2023-02-14T04:20:35.453Z,-1.13
2023-02-14T04:21:37.844Z,-1.13
2023-02-14T04:22:40.203Z,-1.14
2023-02-14T04:23:42.649Z,-1.14
2023-02-14T04:24:45.081Z,-1.14
2023-02-14T04:25:47.507Z,-1.14
2023-02-14T04:27:10.168Z,-1.14
2023-02-14T04:28:13.613Z,-1.15
2023-02-14T04:29:16.019Z,-1.16
2023-02-14T04:30:20.885Z,-1.18
2023-02-14T04:31:23.399Z,-1.19
2023-02-14T04:32:25.834Z,-1.21
2023-02-14T04:33:28.298Z,-1.22
2023-02-14T04:34:30.671Z,-1.23
2023-02-14T04:35:33.053Z,-1.24
2023-02-14T04:36:35.374Z,-1.25
2023-02-14T04:37:37.912Z,-1.26
2023-02-14T04:38:40.502Z,-1.28
2023-02-14T04:39:42.856Z,-1.28
2023-02-14T04:40:45.250Z,-1.29
2023-02-14T04:41:47.583Z,-1.29
2023-02-14T04:42:49.982Z,-1.28
2023-02-14T04:43:52.314Z,-1.26
2023-02-14T04:44:54.674Z,-1.25
2023-02-14T04:45:57.133Z,-1.26
2023-02-14T04:46:59.705Z,-1.27
2023-02-14T04:48:02.034Z,-1.28
2023-02-14T04:49:04.498Z,-1.29
2023-02-14T04:50:07.620Z,-1.30
2023-02-14T04:51:10.133Z,-1.31
2023-02-14T04:52:13.288Z,-1.33
2023-02-14T04:53:15.624Z,-1.34
2023-02-14T04:54:18.009Z,-1.36
2023-02-14T04:55:20.362Z,-1.38
2023-02-14T04:56:22.757Z,-1.40
2023-02-14T04:57:25.148Z,-1.41
2023-02-14T04:58:27.573Z,-1.42
2023-02-14T04:59:30.126Z,-1.43
2023-02-14T05:00:32.512Z,-1.44
2023-02-14T05:01:34.908Z,-1.46
2023-02-14T05:02:37.396Z,-1.47
2023-02-14T05:03:39.741Z,-1.49
2023-02-14T05:04:42.175Z,-1.52
2023-02-14T05:05:44.526Z,-1.54
2023-02-14T05:06:47.073Z,-1.56
2023-02-14T05:07:49.455Z,-1.57
2023-02-14T05:08:51.795Z,-1.58
2023-02-14T05:09:54.171Z,-1.60
2023-02-14T05:10:56.687Z,-1.61
2023-02-14T05:11:59.206Z,-1.62
2023-02-14T05:13:02.024Z,-1.63
2023-02-14T05:14:04.492Z,-1.64
2023-02-14T05:15:07.103Z,-1.64
2023-02-14T05:16:09.553Z,-1.65
2023-02-14T05:17:11.985Z,-1.65
2023-02-14T05:18:14.467Z,-1.65
2023-02-14T05:19:16.840Z,-1.65
2023-02-14T05:20:19.277Z,-1.65
2023-02-14T05:21:24.071Z,-1.65
2023-02-14T05:22:26.400Z,-1.65
2023-02-14T05:23:28.763Z,-1.65
2023-02-14T05:24:31.296Z,-1.66
2023-02-14T05:25:33.640Z,-1.67
2023-02-14T05:26:35.972Z,-1.68
2023-02-14T05:27:38.377Z,-1.69
2023-02-14T05:28:41.172Z,-1.71
2023-02-14T05:29:43.577Z,-1.72
2023-02-14T05:30:46.524Z,-1.72
2023-02-14T05:31:49.033Z,-1.73
2023-02-14T05:32:51.418Z,-1.74
2023-02-14T05:33:53.799Z,-1.73
2023-02-14T05:34:56.177Z,-1.73
2023-02-14T05:36:00.298Z,-1.72
2023-02-14T05:37:03.671Z,-1.72
2023-02-14T05:38:06.100Z,-1.71
2023-02-14T05:39:08.434Z,-1.71
2023-02-14T05:40:13.518Z,-1.72
2023-02-14T05:41:15.948Z,-1.73
2023-02-14T05:42:18.344Z,-1.73
2023-02-14T05:43:21.561Z,-1.74
2023-02-14T05:44:23.986Z,-1.75
2023-02-14T05:45:26.512Z,-1.76
2023-02-14T05:46:28.931Z,-1.77
2023-02-14T05:47:31.529Z,-1.79
2023-02-14T05:48:34.209Z,-1.81
2023-02-14T05:49:36.778Z,-1.83
2023-02-14T05:50:39.324Z,-1.84
2023-02-14T05:51:43.747Z,-1.86
2023-02-14T05:52:46.086Z,-1.87
2023-02-14T05:53:48.491Z,-1.88
2023-02-14T05:54:51.125Z,-1.88
2023-02-14T05:55:53.496Z,-1.89
2023-02-14T05:56:56.488Z,-1.90
2023-02-14T05:57:59.016Z,-1.90
2023-02-14T05:59:01.409Z,-1.91
2023-02-14T06:00:06.628Z,-1.92
2023-02-14T06:01:09.129Z,-1.93
2023-02-14T06:02:11.939Z,-1.93
2023-02-14T06:03:14.296Z,-1.94
2023-02-14T06:04:16.707Z,-1.94
2023-02-14T06:05:20.271Z,-1.94
2023-02-14T06:06:22.609Z,-1.96
2023-02-14T06:07:25.224Z,-1.96
2023-02-14T06:08:27.644Z,-1.97
2023-02-14T06:09:30.066Z,-1.98
2023-02-14T06:10:32.498Z,-1.99
2023-02-14T06:11:34.954Z,-1.98
2023-02-14T06:12:37.504Z,-1.98
2023-02-14T06:13:41.595Z,-1.98
2023-02-14T06:14:45.200Z,-1.98
2023-02-14T06:15:47.630Z,-1.97
2023-02-14T06:16:50.084Z,-1.96
2023-02-14T06:17:54.508Z,-1.95
2023-02-14T06:18:56.888Z,-1.93
2023-02-14T06:19:59.235Z,-1.92
2023-02-14T06:21:01.887Z,-1.90
2023-02-14T06:22:04.922Z,-1.88
2023-02-14T06:23:07.264Z,-1.86
2023-02-14T06:24:09.718Z,-1.84
2023-02-14T06:25:12.070Z,-1.81
2023-02-14T06:26:14.445Z,-1.78
2023-02-14T06:27:17.020Z,-1.75
2023-02-14T06:28:19.370Z,-1.72
2023-02-14T06:29:21.752Z,-1.69
2023-02-14T06:30:24.711Z,-1.66
2023-02-14T06:31:27.336Z,-1.64
2023-02-14T06:32:29.740Z,-1.61
2023-02-14T06:33:32.091Z,-1.59
2023-02-14T06:34:34.590Z,-1.56
2023-02-14T06:35:36.953Z,-1.53
2023-02-14T06:36:39.276Z,-1.51
2023-02-14T06:37:45.333Z,-1.49
2023-02-14T06:38:48.688Z,-1.48
2023-02-14T06:39:52.918Z,-1.47
2023-02-14T06:40:55.488Z,-1.46
2023-02-14T06:41:57.878Z,-1.45
2023-02-14T06:43:00.426Z,-1.43
2023-02-14T06:44:03.852Z,-1.41
2023-02-14T06:45:10.101Z,-1.41
2023-02-14T06:46:12.595Z,-1.41
2023-02-14T06:47:15.217Z,-1.40
2023-02-14T06:48:21.695Z,-1.39
2023-02-14T06:49:24.666Z,-1.38
2023-02-14T06:50:27.313Z,-1.36
2023-02-14T06:51:34.306Z,-1.35
2023-02-14T06:52:38.022Z,-1.33
2023-02-14T06:53:44.926Z,-1.31
2023-02-14T06:54:49.835Z,-1.29
2023-02-14T06:55:52.308Z,-1.26
2023-02-14T06:56:56.224Z,-1.22
2023-02-14T06:58:01.755Z,-1.18
2023-02-14T06:59:11.152Z,-1.13
2023-02-14T07:00:16.752Z,-1.09
2023-02-14T07:01:19.331Z,-1.05
2023-02-14T07:02:24.697Z,-1.02
2023-02-14T07:03:27.663Z,-0.98
2023-02-14T07:04:31.362Z,-0.94
2023-02-14T07:05:38.385Z,-0.89
2023-02-14T07:06:40.892Z,-0.85
2023-02-14T07:07:44.161Z,-0.81
2023-02-14T07:08:48.591Z,-0.76
2023-02-14T07:09:52.435Z,-0.72
2023-02-14T07:10:58.737Z,-0.68
2023-02-14T07:12:02.523Z,-0.63
2023-02-14T07:13:05.598Z,-0.59
2023-02-14T07:14:07.984Z,-0.55
2023-02-14T07:15:12.411Z,-0.50
2023-02-14T07:16:14.822Z,-0.46
2023-02-14T07:17:17.420Z,-0.43
2023-02-14T07:18:19.802Z,-0.38
2023-02-14T07:19:22.204Z,-0.34
2023-02-14T07:20:25.009Z,-0.29
2023-02-14T07:21:27.407Z,-0.26
2023-02-14T07:22:30.403Z,-0.22
2023-02-14T07:23:33.148Z,-0.19
2023-02-14T07:24:35.578Z,-0.15
2023-02-14T07:25:38.410Z,-0.11
2023-02-14T07:26:40.791Z,-0.06
2023-02-14T07:27:43.741Z,-0.01
2023-02-14T07:28:49.135Z,0.03
2023-02-14T07:29:51.735Z,0.07
2023-02-14T07:30:54.403Z,0.13
2023-02-14T07:31:57.074Z,0.18
2023-02-14T07:32:59.789Z,0.22
2023-02-14T07:34:02.255Z,0.26
2023-02-14T07:35:05.105Z,0.31
2023-02-14T07:36:08.826Z,0.36
2023-02-14T07:37:11.342Z,0.41
2023-02-14T07:38:13.780Z,0.47
2023-02-14T07:39:16.264Z,0.52
2023-02-14T07:40:20.133Z,0.58
2023-02-14T07:41:22.632Z,0.63
2023-02-14T07:42:25.056Z,0.70
2023-02-14T07:43:27.834Z,0.76
2023-02-14T07:44:30.356Z,0.82
2023-02-14T07:45:32.783Z,0.88
2023-02-14T07:46:35.349Z,0.94
2023-02-14T07:47:38.143Z,0.99
2023-02-14T07:48:40.657Z,1.05
2023-02-14T07:49:43.123Z,1.11
2023-02-14T07:50:45.636Z,1.16
2023-02-14T07:51:48.090Z,1.21
2023-02-14T07:52:50.663Z,1.27
2023-02-14T07:53:53.118Z,1.33
2023-02-14T07:54:57.425Z,1.40
2023-02-14T07:56:01.764Z,1.46
2023-02-14T07:57:07.218Z,1.52
2023-02-14T07:58:17.204Z,1.59
2023-02-14T07:59:25.955Z,1.65
2023-02-14T08:00:49.134Z,1.72
2023-02-14T08:01:51.885Z,1.78
2023-02-14T08:02:56.099Z,1.84
2023-02-14T08:03:59.416Z,1.89
2023-02-14T08:05:24.638Z,1.93
2023-02-14T08:07:23.117Z,2.00
2023-02-14T08:08:28.016Z,2.09
2023-02-14T08:09:30.571Z,2.13
2023-02-14T08:10:32.971Z,2.17
2023-02-14T08:12:04.891Z,2.20
2023-02-14T08:13:07.369Z,2.26
2023-02-14T08:14:09.767Z,2.32
2023-02-14T08:15:30.665Z,2.36
2023-02-14T08:16:34.765Z,2.41
2023-02-14T08:17:37.259Z,2.46
2023-02-14T08:18:41.597Z,2.50
2023-02-14T08:19:44.034Z,2.54
2023-02-14T08:20:49.859Z,2.57
2023-02-14T08:21:52.525Z,2.61
2023-02-14T08:22:54.995Z,2.65
2023-02-14T08:23:57.908Z,2.69
2023-02-14T08:25:00.271Z,2.71
2023-02-14T08:26:04.858Z,2.75
2023-02-14T08:27:07.406Z,2.80
2023-02-14T08:28:10.351Z,2.84
2023-02-14T08:29:13.370Z,2.89
2023-02-14T08:30:16.926Z,2.92
2023-02-14T08:31:36.083Z,2.95
2023-02-14T08:32:38.922Z,2.99
2023-02-14T08:33:43.434Z,3.03
2023-02-14T08:34:45.935Z,3.07
2023-02-14T08:35:48.817Z,3.10
2023-02-14T08:36:52.159Z,3.12
2023-02-14T08:37:55.087Z,3.16
2023-02-14T08:38:57.937Z,3.20
2023-02-14T08:40:00.465Z,3.24
2023-02-14T08:41:44.743Z,3.30
2023-02-14T08:42:47.703Z,3.37
2023-02-14T08:43:50.526Z,3.43
2023-02-14T08:45:10.767Z,3.50
2023-02-14T08:46:15.146Z,3.57
2023-02-14T08:47:23.555Z,3.61
2023-02-14T08:48:37.374Z,3.65
2023-02-14T08:49:42.670Z,3.72
2023-02-14T08:50:52.221Z,3.78
2023-02-14T08:52:03.094Z,3.81
2023-02-14T08:53:13.802Z,3.84
2023-02-14T08:54:26.985Z,3.87
2023-02-14T08:56:27.007Z,3.92
2023-02-14T08:57:38.824Z,3.99
2023-02-14T08:59:01.033Z,4.03
2023-02-14T09:00:07.408Z,4.08
2023-02-14T09:01:11.996Z,4.14
2023-02-14T09:02:17.958Z,4.22
2023-02-14T09:03:35.178Z,4.30
2023-02-14T09:04:39.788Z,4.37
2023-02-14T09:05:43.132Z,4.42
2023-02-14T09:06:45.631Z,4.47
2023-02-14T09:07:47.978Z,4.52
2023-02-14T09:08:50.741Z,4.57
2023-02-14T09:09:53.114Z,4.59
2023-02-14T09:10:55.597Z,4.62
2023-02-14T09:11:58.120Z,4.67
2023-02-14T09:13:00.481Z,4.70
2023-02-14T09:14:03.065Z,4.75
2023-02-14T09:15:05.834Z,4.80
2023-02-14T09:16:10.768Z,4.84
2023-02-14T09:17:13.818Z,4.88
2023-02-14T09:18:16.476Z,4.91
2023-02-14T09:19:18.909Z,4.93
2023-02-14T09:20:21.429Z,4.95
2023-02-14T09:21:26.976Z,4.98
2023-02-14T09:22:29.464Z,5.01
2023-02-14T09:23:31.915Z,5.05
2023-02-14T09:24:36.640Z,5.09
2023-02-14T09:25:39.092Z,5.11
2023-02-14T09:26:42.386Z,5.14
2023-02-14T09:27:44.773Z,5.19
2023-02-14T09:28:47.920Z,5.23
2023-02-14T09:29:50.449Z,5.25
2023-02-14T09:30:54.465Z,5.28
2023-02-14T09:31:59.823Z,5.32
2023-02-14T09:33:05.397Z,5.33
2023-02-14T09:34:07.826Z,5.36
2023-02-14T09:35:29.138Z,5.40
2023-02-14T09:36:34.063Z,5.43
2023-02-14T09:37:41.560Z,5.46
2023-02-14T09:38:45.727Z,5.51
2023-02-14T09:40:03.154Z,5.53
2023-02-14T09:41:35.389Z,5.58
2023-02-14T09:43:06.747Z,5.65
2023-02-14T09:44:26.742Z,5.72
2023-02-14T09:45:31.477Z,5.75
2023-02-14T09:46:43.353Z,5.77
2023-02-14T09:47:55.912Z,5.80
2023-02-14T09:49:01.307Z,5.85
2023-02-14T09:50:18.730Z,5.88
2023-02-14T09:51:27.420Z,5.91
2023-02-14T09:52:32.700Z,5.93
2023-02-14T09:54:12.600Z,5.98
2023-02-14T09:55:18.246Z,6.05
2023-02-14T09:56:40.047Z,6.09
2023-02-14T09:58:08.397Z,6.14
2023-02-14T09:59:35.028Z,6.18
2023-02-14T10:00:46.834Z,6.23
2023-02-14T10:01:58.976Z,6.28
2023-02-14T10:03:25.808Z,6.34
2023-02-14T10:04:48.034Z,6.40
2023-02-14T10:06:28.137Z,6.42
2023-02-14T10:07:57.852Z,6.47
2023-02-14T10:09:32.662Z,6.51
2023-02-14T10:10:43.266Z,6.58
2023-02-14T10:11:47.723Z,6.62
2023-02-14T10:13:00.844Z,6.65
2023-02-14T10:14:17.758Z,6.71
2023-02-14T10:15:34.658Z,6.76
2023-02-14T10:16:44.364Z,6.79
2023-02-14T10:17:52.910Z,6.82
2023-02-14T10:19:04.479Z,6.85
2023-02-14T10:20:20.051Z,6.88
2023-02-14T10:21:30.223Z,6.88
2023-02-14T10:22:42.915Z,6.93
2023-02-14T10:23:54.545Z,6.99
2023-02-14T10:25:08.660Z,7.03
2023-02-14T10:26:16.347Z,7.10
2023-02-14T10:27:42.384Z,7.15
2023-02-14T10:28:49.912Z,7.20
2023-02-14T10:29:52.287Z,7.24
2023-02-14T10:31:06.286Z,7.27
2023-02-14T10:32:14.848Z,7.30
2023-02-14T10:33:19.734Z,7.32
2023-02-14T10:34:46.339Z,7.35
2023-02-14T10:35:53.252Z,7.41
2023-02-14T10:37:27.993Z,7.44
2023-02-14T10:38:44.255Z,7.50
2023-02-14T10:40:00.743Z,7.55
2023-02-14T10:41:33.071Z,7.58
2023-02-14T10:42:55.261Z,7.60
2023-02-14T10:46:18.536Z,7.64
2023-02-14T10:49:43.110Z,7.68
2023-02-14T10:51:03.703Z,7.70
2023-02-14T10:52:29.250Z,7.72
2023-02-14T10:53:50.188Z,7.76
2023-02-14T10:54:58.573Z,7.81
2023-02-14T10:56:08.570Z,7.83
2023-02-14T10:57:33.039Z,7.86
2023-02-14T10:58:38.853Z,7.92
2023-02-14T11:00:02.753Z,7.96
2023-02-14T11:01:13.179Z,8.01
2023-02-14T11:02:18.174Z,8.03
2023-02-14T11:03:20.577Z,8.05
2023-02-14T11:04:26.440Z,8.07
2023-02-14T11:05:31.749Z,8.10
2023-02-14T11:06:34.567Z,8.12
2023-02-14T11:07:37.331Z,8.13
2023-02-14T11:08:42.347Z,8.17
2023-02-14T11:09:45.248Z,8.22
2023-02-14T11:10:48.478Z,8.25
2023-02-14T11:11:56.319Z,8.29
2023-02-14T11:12:58.833Z,8.36
2023-02-14T11:15:27.816Z,8.48
2023-02-14T11:16:36.703Z,8.52
2023-02-14T11:17:39.757Z,8.53
2023-02-14T11:18:42.466Z,8.54
2023-02-14T11:20:03.083Z,8.56
2023-02-14T11:21:10.963Z,8.58
2023-02-14T11:22:30.226Z,8.60
2023-02-14T11:23:35.986Z,8.64
2023-02-14T11:24:44.070Z,8.67
2023-02-14T11:25:55.147Z,8.71
2023-02-14T11:27:15.390Z,8.75
2023-02-14T11:28:24.105Z,8.79
2023-02-14T11:29:42.819Z,8.81
2023-02-14T11:30:56.992Z,8.84
2023-02-14T11:32:15.099Z,8.87
2023-02-14T11:33:30.708Z,8.91
2023-02-14T11:35:02.739Z,8.94
2023-02-14T11:36:13.803Z,8.98
2023-02-14T11:37:59.676Z,9.01
2023-02-14T11:39:23.705Z,9.04
2023-02-14T11:40:51.651Z,9.07
2023-02-14T11:41:59.967Z,9.10
2023-02-14T11:43:19.882Z,9.14
2023-02-14T11:44:30.645Z,9.19
2023-02-14T11:45:39.116Z,9.23
2023-02-14T11:46:52.810Z,9.26
2023-02-14T11:48:38.420Z,9.31
2023-02-14T11:54:07.610Z,9.43
2023-02-14T11:55:34.837Z,9.45
2023-02-14T11:57:14.050Z,9.47
2023-02-14T11:58:32.410Z,9.47
2023-02-14T11:59:51.638Z,9.46
2023-02-14T12:00:54.985Z,9.44
2023-02-14T12:02:02.900Z,9.42
2023-02-14T12:03:07.370Z,9.40
2023-02-14T12:04:18.954Z,9.39
2023-02-14T12:05:46.508Z,9.37
2023-02-14T12:06:49.601Z,9.35
2023-02-14T12:07:58.421Z,9.34
2023-02-14T12:09:25.790Z,9.33
2023-02-14T12:10:38.296Z,9.31
2023-02-14T12:11:41.414Z,9.29
2023-02-14T12:12:51.004Z,9.28
2023-02-14T12:13:56.151Z,9.26
2023-02-14T12:15:54.604Z,9.26
2023-02-14T12:17:11.979Z,9.26
2023-02-14T12:18:29.847Z,9.26
2023-02-14T12:19:54.445Z,9.25
2023-02-14T12:21:13.147Z,9.25
2023-02-14T12:22:20.957Z,9.25
2023-02-14T12:23:35.451Z,9.26
2023-02-14T12:25:00.366Z,9.26
2023-02-14T12:26:09.762Z,9.25
2023-02-14T12:27:12.287Z,9.26
2023-02-14T12:28:23.686Z,9.27
2023-02-14T12:29:42.152Z,9.28
2023-02-14T12:30:45.623Z,9.30
2023-02-14T12:31:58.928Z,9.32
2023-02-14T12:33:05.065Z,9.34
2023-02-14T12:34:11.312Z,9.36
2023-02-14T12:35:48.619Z,9.39
2023-02-14T12:37:29.518Z,9.43
2023-02-14T12:39:16.747Z,9.46
2023-02-14T12:40:21.543Z,9.49
2023-02-14T12:41:44.961Z,9.50
2023-02-14T12:44:07.371Z,9.53
2023-02-14T12:45:24.951Z,9.57
2023-02-14T12:46:40.652Z,9.58
2023-02-14T12:47:53.236Z,9.59
2023-02-14T12:49:28.913Z,9.60
2023-02-14T12:50:46.880Z,9.62
2023-02-14T12:52:00.228Z,9.64
2023-02-14T12:53:21.135Z,9.65
2023-02-14T12:54:44.308Z,9.66
2023-02-14T12:56:10.885Z,9.66
2023-02-14T12:57:43.863Z,9.68
2023-02-14T12:59:12.762Z,9.68
2023-02-14T13:01:29.204Z,9.63
2023-02-14T13:02:46.715Z,9.60
2023-02-14T13:04:13.741Z,9.58
2023-02-14T13:05:18.111Z,9.56
2023-02-14T13:07:10.735Z,9.55
2023-02-14T13:08:49.697Z,9.54
2023-02-14T13:10:32.752Z,9.55
2023-02-14T13:11:50.612Z,9.56
2023-02-14T13:13:04.505Z,9.57
2023-02-14T13:14:31.040Z,9.58
2023-02-14T13:15:53.157Z,9.58
2023-02-14T13:17:18.148Z,9.58
2023-02-14T13:18:48.881Z,9.59
2023-02-14T13:20:03.303Z,9.60
2023-02-14T13:21:13.159Z,9.60
2023-02-14T13:22:19.223Z,9.61
2023-02-14T13:23:35.662Z,9.62
2023-02-14T13:27:23.174Z,9.62
2023-02-14T13:29:50.630Z,9.62
2023-02-14T13:30:55.155Z,9.62
2023-02-14T13:32:01.974Z,9.61
2023-02-14T13:33:10.400Z,9.60
2023-02-14T13:34:28.240Z,9.60
2023-02-14T13:35:32.375Z,9.60
2023-02-14T13:36:36.515Z,9.58
2023-02-14T13:37:39.329Z,9.56
2023-02-14T13:38:48.689Z,9.56
2023-02-14T13:40:01.901Z,9.56
2023-02-14T13:41:05.575Z,9.56
2023-02-14T13:42:08.002Z,9.56
2023-02-14T13:43:10.411Z,9.56
2023-02-14T13:44:38.680Z,9.56
2023-02-14T13:45:41.101Z,9.57
2023-02-14T13:46:48.322Z,9.56
2023-02-14T13:48:03.641Z,9.55
2023-02-14T13:49:24.339Z,9.54
2023-02-14T13:50:27.348Z,9.52
2023-02-14T13:51:53.034Z,9.51
2023-02-14T13:52:55.867Z,9.51
2023-02-14T13:53:59.766Z,9.50
2023-02-14T13:55:07.842Z,9.49
2023-02-14T13:56:12.838Z,9.50
2023-02-14T13:57:36.564Z,9.50
2023-02-14T13:58:55.113Z,9.50
2023-02-14T14:00:19.100Z,9.50
2023-02-14T14:01:30.656Z,9.51
2023-02-14T14:02:44.290Z,9.52
2023-02-14T14:03:57.828Z,9.53
2023-02-14T14:05:03.108Z,9.54
2023-02-14T14:06:10.911Z,9.55
2023-02-14T14:07:13.554Z,9.55
2023-02-14T14:08:25.235Z,9.56
2023-02-14T14:09:43.344Z,9.56
2023-02-14T14:10:48.509Z,9.56
2023-02-14T14:11:51.518Z,9.56
2023-02-14T14:12:53.935Z,9.56
2023-02-14T14:14:01.879Z,9.56
2023-02-14T14:15:07.300Z,9.56
2023-02-14T14:16:27.709Z,9.56
2023-02-14T14:17:35.346Z,9.56
2023-02-14T14:18:43.392Z,9.56
2023-02-14T14:19:47.108Z,9.55
2023-02-14T14:20:49.677Z,9.56
2023-02-14T14:22:09.468Z,9.56
2023-02-14T14:23:45.168Z,9.55
2023-02-14T14:24:59.561Z,9.55
2023-02-14T14:26:02.471Z,9.54
2023-02-14T14:27:20.976Z,9.54
2023-02-14T14:28:26.532Z,9.54
2023-02-14T14:29:31.797Z,9.53
2023-02-14T14:30:34.487Z,9.53
2023-02-14T14:31:41.035Z,9.52
2023-02-14T14:32:45.889Z,9.51
2023-02-14T14:33:57.865Z,9.49
2023-02-14T14:35:04.929Z,9.48
2023-02-14T14:36:13.515Z,9.47
2023-02-14T14:37:19.486Z,9.47
2023-02-14T14:38:53.928Z,9.47
2023-02-14T14:40:02.453Z,9.46
2023-02-14T14:41:04.949Z,9.45
2023-02-14T14:42:18.200Z,9.44
2023-02-14T14:43:33.797Z,9.43
2023-02-14T14:44:38.082Z,9.41
2023-02-14T14:45:43.805Z,9.39
2023-02-14T14:46:46.884Z,9.37
2023-02-14T14:47:54.112Z,9.35
2023-02-14T14:48:57.518Z,9.34
2023-02-14T14:50:07.518Z,9.33
2023-02-14T14:51:21.958Z,9.31
2023-02-14T14:52:37.565Z,9.30
2023-02-14T14:53:47.185Z,9.29
2023-02-14T14:54:49.555Z,9.28
2023-02-14T14:55:52.290Z,9.27
2023-02-14T14:57:01.770Z,9.25
2023-02-14T14:58:09.318Z,9.24
2023-02-14T14:59:29.039Z,9.23
2023-02-14T15:00:34.584Z,9.22
2023-02-14T15:01:39.008Z,9.21
2023-02-14T15:02:41.351Z,9.20
2023-02-14T15:03:43.815Z,9.19
2023-02-14T15:04:46.193Z,9.18
2023-02-14T15:05:50.414Z,9.17
2023-02-14T15:06:52.875Z,9.15
2023-02-14T15:07:55.414Z,9.15
2023-02-14T15:08:57.834Z,9.13
2023-02-14T15:10:00.655Z,9.12
2023-02-14T15:11:11.081Z,9.10
2023-02-14T15:12:38.551Z,9.09
2023-02-14T15:13:53.535Z,9.07
2023-02-14T15:14:58.057Z,9.06
2023-02-14T15:16:03.480Z,9.05
2023-02-14T15:17:18.635Z,9.04
2023-02-14T15:18:21.707Z,9.02
2023-02-14T15:19:33.439Z,9.01
2023-02-14T15:20:36.994Z,9.00
2023-02-14T15:21:44.471Z,8.98
2023-02-14T15:22:49.897Z,8.97
2023-02-14T15:23:52.866Z,8.95
2023-02-14T15:24:55.756Z,8.94
2023-02-14T15:25:58.225Z,8.92
2023-02-14T15:27:02.109Z,8.91
2023-02-14T15:28:04.820Z,8.89
2023-02-14T15:29:07.597Z,8.87
2023-02-14T15:30:19.456Z,8.86
2023-02-14T15:31:22.255Z,8.84
2023-02-14T15:32:26.732Z,8.82
2023-02-14T15:33:31.563Z,8.80
2023-02-14T15:34:36.438Z,8.78
2023-02-14T15:35:42.399Z,8.76
2023-02-14T15:36:49.173Z,8.74
2023-02-14T15:37:52.399Z,8.72
2023-02-14T15:38:56.882Z,8.71
2023-02-14T15:39:59.925Z,8.69
2023-02-14T15:41:03.124Z,8.67
2023-02-14T15:42:06.375Z,8.66
2023-02-14T15:43:29.708Z,8.64
2023-02-14T15:44:32.636Z,8.61
2023-02-14T15:45:35.081Z,8.59
2023-02-14T15:46:39.551Z,8.57
2023-02-14T15:47:44.792Z,8.55
2023-02-14T15:48:48.020Z,8.53
2023-02-14T15:49:50.476Z,8.51
2023-02-14T15:50:56.597Z,8.49
2023-02-14T15:52:02.880Z,8.46
2023-02-14T15:53:17.424Z,8.42
2023-02-14T15:54:26.022Z,8.38
2023-02-14T15:55:28.945Z,8.35
2023-02-14T15:56:43.268Z,8.32
2023-02-14T15:57:55.379Z,8.28
2023-02-14T15:59:00.812Z,8.25
2023-02-14T16:00:11.663Z,8.23
2023-02-14T16:01:14.244Z,8.20
2023-02-14T16:02:17.327Z,8.16
2023-02-14T16:03:22.776Z,8.13
2023-02-14T16:04:31.372Z,8.08
2023-02-14T16:05:34.179Z,8.04
2023-02-14T16:06:44.781Z,8.00
2023-02-14T16:08:03.640Z,7.96
2023-02-14T16:09:26.198Z,7.91
2023-02-14T16:10:31.103Z,7.85
2023-02-14T16:11:38.151Z,7.81
2023-02-14T16:12:42.333Z,7.77
2023-02-14T16:13:46.579Z,7.74
2023-02-14T16:15:20.603Z,7.70
2023-02-14T16:16:23.100Z,7.65
2023-02-14T16:17:34.657Z,7.61
2023-02-14T16:18:45.971Z,7.57
2023-02-14T16:19:48.434Z,7.53
2023-02-14T16:20:51.432Z,7.48
2023-02-14T16:21:57.359Z,7.43
2023-02-14T16:23:22.227Z,7.39
2023-02-14T16:24:24.587Z,7.32
2023-02-14T16:25:26.962Z,7.28
2023-02-14T16:26:30.804Z,7.24
2023-02-14T16:27:33.648Z,7.19
2023-02-14T16:28:38.948Z,7.14
2023-02-14T16:29:41.632Z,7.11
2023-02-14T16:30:46.074Z,7.08
2023-02-14T16:32:16.510Z,7.04
2023-02-14T16:33:22.554Z,7.00
2023-02-14T16:34:26.563Z,6.98
2023-02-14T16:35:29.622Z,6.94
2023-02-14T16:36:33.688Z,6.89
2023-02-14T16:37:36.079Z,6.86
2023-02-14T16:38:44.196Z,6.82
2023-02-14T16:39:47.748Z,6.78
2023-02-14T16:40:52.439Z,6.74
2023-02-14T16:41:56.569Z,6.70
2023-02-14T16:42:59.909Z,6.67
2023-02-14T16:44:02.779Z,6.63
2023-02-14T16:45:05.360Z,6.60
2023-02-14T16:46:12.365Z,6.56
2023-02-14T16:47:17.325Z,6.52
2023-02-14T16:48:19.760Z,6.48
2023-02-14T16:49:23.729Z,6.45
2023-02-14T16:50:26.242Z,6.41
2023-02-14T16:51:33.677Z,6.37
2023-02-14T16:52:36.372Z,6.33
2023-02-14T16:53:38.794Z,6.29
2023-02-14T16:54:41.353Z,6.25
2023-02-14T16:55:43.761Z,6.21
2023-02-14T16:56:52.811Z,6.18
2023-02-14T16:57:55.278Z,6.14
2023-02-14T16:58:58.258Z,6.10
2023-02-14T17:00:00.682Z,6.07
2023-02-14T17:01:03.561Z,6.04
2023-02-14T17:02:06.416Z,6.02
2023-02-14T17:03:11.561Z,5.99
2023-02-14T17:04:14.009Z,5.97
2023-02-14T17:05:16.542Z,5.94
2023-02-14T17:06:24.338Z,5.91
2023-02-14T17:07:29.834Z,5.87
2023-02-14T17:08:32.334Z,5.82
2023-02-14T17:09:40.033Z,5.78
2023-02-14T17:10:44.811Z,5.73
2023-02-14T17:11:51.922Z,5.69
2023-02-14T17:12:57.513Z,5.64
2023-02-14T17:13:59.896Z,5.61
2023-02-14T17:15:06.189Z,5.58
2023-02-14T17:16:11.908Z,5.55
2023-02-14T17:17:16.903Z,5.53
2023-02-14T17:18:23.019Z,5.51
2023-02-14T17:19:25.715Z,5.49
2023-02-14T17:20:30.889Z,5.47
2023-02-14T17:21:35.648Z,5.45
2023-02-14T17:22:38.270Z,5.43
2023-02-14T17:23:40.642Z,5.41
2023-02-14T17:24:43.013Z,5.39
2023-02-14T17:25:45.408Z,5.36
2023-02-14T17:26:47.816Z,5.34
2023-02-14T17:27:50.313Z,5.32
2023-02-14T17:28:52.651Z,5.30